Time;durP1;ratioP1;P1;durP2;ratioP2;P2;SDS_P1;SDS_P2;PMS_P1;PMS_P2;Temp;Humidity;BMP_temperature;BMP_pressure;BME280_temperature;BME280_humidity;BME280_pressure;Samples;Min_cycle;Max_cycle;Signal;HPM_P1;HPM_P2
2022/06/24 00:01:32;;;;;;;6.17;3.20;;;23.50;78.40;;;;;;5008287;28;20040;-73
2022/06/24 00:03:58;;;;;;;8.10;3.58;;;23.50;79.20;;;;;;5011893;28;20128;-72
2022/06/24 00:06:39;;;;;;;8.88;3.30;;;23.50;80.30;;;;;;5007175;28;20046;-73
2022/06/24 00:09:05;;;;;;;5.95;3.35;;;23.40;82.20;;;;;;5012598;28;20053;-72
2022/06/24 00:11:31;;;;;;;6.30;2.92;;;23.40;83.10;;;;;;4996957;28;20115;-72
2022/06/24 00:14:12;;;;;;;5.78;3.60;;;23.30;83.40;;;;;;5006577;28;20946;-72
2022/06/24 00:17:02;;;;;;;4.90;3.00;;;23.30;90.50;;;;;;5003211;28;20104;-73
2022/06/24 00:19:30;;;;;;;3.88;3.30;;;23.20;89.60;;;;;;5012462;28;20436;-73
2022/06/24 00:21:57;;;;;;;6.00;3.55;;;23.20;87.20;;;;;;5011146;28;20404;-73
2022/06/24 00:24:23;;;;;;;3.40;3.10;;;23.20;89.20;;;;;;5010163;28;20481;-73
2022/06/24 00:26:48;;;;;;;4.18;3.20;;;23.20;89.40;;;;;;5009531;28;20081;-72
2022/06/24 00:29:18;;;;;;;4.55;3.10;;;23.20;90.00;;;;;;5010922;28;20139;-72
2022/06/24 00:32:04;;;;;;;5.80;3.30;;;23.20;85.50;;;;;;4997794;28;20533;-72
2022/06/24 00:34:30;;;;;;;5.88;3.20;;;23.20;81.90;;;;;;5009891;28;20088;-73
2022/06/24 00:36:56;;;;;;;4.27;3.23;;;23.20;82.40;;;;;;5011479;28;20049;-73
2022/06/24 00:39:33;;;;;;;5.93;3.40;;;23.20;81.10;;;;;;5012225;28;20289;-73
2022/06/24 00:41:59;;;;;;;;;;;23.20;81.80;;;;;;5011526;28;20128;-71
2022/06/24 00:44:42;;;;;;;4.18;3.28;;;23.10;81.20;;;;;;5010400;28;19921;-72
2022/06/24 00:47:09;;;;;;;4.85;3.10;;;23.20;84.70;;;;;;5009092;28;20049;-72
2022/06/24 00:49:36;;;;;;;3.35;2.92;;;23.10;80.40;;;;;;5006632;28;20073;-72
2022/06/24 00:52:07;;;;;;;4.43;3.10;;;23.20;78.40;;;;;;4999275;28;20139;-72
2022/06/24 00:54:33;;;;;;;6.25;3.30;;;23.20;78.90;;;;;;5012108;28;20050;-72
2022/06/24 00:56:59;;;;;;;6.55;3.03;;;23.20;77.60;;;;;;5009311;28;20449;-72
2022/06/24 00:59:25;;;;;;;4.43;3.13;;;23.10;78.10;;;;;;5010717;28;20128;-73
2022/06/24 01:01:51;;;;;;;6.40;3.20;;;23.10;76.90;;;;;;5003209;28;20053;-73
2022/06/24 01:04:17;;;;;;;7.15;3.42;;;23.10;76.10;;;;;;4999123;28;20104;-73
2022/06/24 01:06:44;;;;;;;5.93;3.28;;;23.20;76.00;;;;;;5005515;28;20046;-72
2022/06/24 01:09:10;;;;;;;;;;;23.10;76.10;;;;;;4992780;28;20046;-73
2022/06/24 01:11:43;;;;;;;3.90;3.37;;;23.00;78.00;;;;;;4994677;28;19921;-72
2022/06/24 01:14:10;;;;;;;5.80;3.40;;;23.00;77.20;;;;;;5006465;28;20305;-72
2022/06/24 01:16:36;;;;;;;6.45;3.83;;;23.00;76.90;;;;;;5007113;28;20037;-73
2022/06/24 01:19:08;;;;;;;5.38;3.42;;;22.90;76.50;;;;;;5007384;28;20042;-73
2022/06/24 01:21:38;;;;;;;5.47;3.45;;;22.90;76.10;;;;;;5007368;28;20439;-72
2022/06/24 01:24:04;;;;;;;5.65;3.60;;;22.90;77.00;;;;;;5008263;28;20042;-72
2022/06/24 01:26:29;;;;;;;5.10;3.42;;;22.90;79.00;;;;;;5007322;28;20172;-73
2022/06/24 01:28:55;;;;;;;4.60;3.47;;;22.80;77.40;;;;;;5010189;28;20132;-73
2022/06/24 01:31:21;;;;;;;5.72;3.38;;;22.80;76.50;;;;;;5004030;28;20057;-73
2022/06/24 01:33:46;;;;;;;6.90;3.58;;;22.80;77.60;;;;;;5010093;28;20034;-73
2022/06/24 01:36:12;;;;;;;6.28;3.45;;;22.80;76.50;;;;;;5008072;28;20057;-72
2022/06/24 01:38:37;;;;;;;9.43;3.90;;;22.80;76.20;;;;;;5010461;28;20397;-73
2022/06/24 01:41:03;;;;;;;8.90;3.72;;;22.80;77.30;;;;;;5004161;28;20058;-72
2022/06/24 01:43:29;;;;;;;6.47;3.67;;;22.70;76.70;;;;;;5003938;28;20033;-73
2022/06/24 01:45:54;;;;;;;6.32;3.80;;;22.70;77.70;;;;;;5007812;28;20046;-72
2022/06/24 01:48:20;;;;;;;6.82;4.18;;;22.70;78.50;;;;;;5010256;28;20046;-73
2022/06/24 01:50:45;;;;;;;5.88;4.07;;;22.70;78.20;;;;;;5006771;28;20042;-73
2022/06/24 01:53:11;;;;;;;7.50;3.70;;;22.60;78.40;;;;;;5007293;28;20053;-72
2022/06/24 01:55:36;;;;;;;7.35;3.80;;;22.60;78.50;;;;;;4997873;28;20108;-72
2022/06/24 01:58:02;;;;;;;5.88;3.65;;;22.60;78.30;;;;;;5001410;28;20050;-72
2022/06/24 02:00:28;;;;;;;8.40;4.10;;;22.50;78.70;;;;;;5007232;28;20087;-73
2022/06/24 02:02:54;;;;;;;5.40;3.38;;;22.50;80.10;;;;;;5009919;28;20052;-72
2022/06/24 02:05:20;;;;;;;7.55;3.88;;;22.50;79.60;;;;;;5008375;28;20045;-72
2022/06/24 02:07:45;;;;;;;5.32;3.63;;;22.50;80.70;;;;;;5004692;28;20045;-73
2022/06/24 02:13:55;;;;;;;6.32;3.90;;;22.50;81.80;;;;;;5002769;28;20050;-73
2022/06/24 02:15:50;;;;;;;5.35;3.53;;;22.40;82.50;;;;;;5000479;28;20413;-72
2022/06/24 02:18:15;;;;;;;4.38;3.22;;;22.40;81.60;;;;;;5007766;28;20042;-73
2022/06/24 02:20:41;;;;;;;6.30;3.17;;;22.40;80.50;;;;;;5009402;28;20042;-73
2022/06/24 02:23:06;;;;;;;6.03;3.53;;;22.30;79.60;;;;;;5009299;28;20460;-73
2022/06/24 02:25:32;;;;;;;5.15;3.33;;;22.30;80.00;;;;;;5007201;28;20045;-71
2022/06/24 02:27:58;;;;;;;4.43;3.30;;;22.30;80.00;;;;;;5006059;28;20057;-73
2022/06/24 02:30:23;;;;;;;3.72;3.30;;;22.30;79.60;;;;;;5009060;28;20057;-72
2022/06/24 02:32:49;;;;;;;4.85;3.28;;;22.30;79.70;;;;;;5009455;28;20054;-72
2022/06/24 02:35:17;;;;;;;5.70;3.63;;;22.40;79.90;;;;;;5008055;28;20081;-73
2022/06/24 02:37:43;;;;;;;5.45;3.83;;;22.40;78.70;;;;;;5008030;28;20080;-72
2022/06/24 02:42:57;;;;;;;5.22;3.53;;;22.40;80.30;;;;;;5009417;28;20058;-73
2022/06/24 02:45:23;;;;;;;4.90;3.10;;;22.40;80.70;;;;;;5006724;28;20115;-72
2022/06/24 02:47:49;;;;;;;3.78;3.15;;;22.40;81.10;;;;;;5005767;28;20436;-72
2022/06/24 02:50:14;;;;;;;6.22;3.25;;;22.50;80.70;;;;;;5008243;28;20056;-72
2022/06/24 02:52:40;;;;;;;4.47;3.10;;;22.50;79.40;;;;;;5008575;28;20046;-73
2022/06/24 02:55:06;;;;;;;8.10;3.40;;;22.50;79.10;;;;;;5009128;28;20400;-72
2022/06/24 02:57:32;;;;;;;5.57;3.58;;;22.50;79.80;;;;;;5009526;28;20065;-73
2022/06/24 02:59:58;;;;;;;7.28;3.47;;;22.50;80.90;;;;;;5005094;28;20038;-72
2022/06/24 03:02:23;;;;;;;5.38;3.70;;;22.50;82.00;;;;;;5007743;28;20053;-72
2022/06/24 03:04:49;;;;;;;5.65;3.00;;;22.50;83.10;;;;;;4998476;28;20042;-72
2022/06/24 03:07:14;;;;;;;4.93;3.30;;;22.40;82.60;;;;;;5003182;28;20080;-72
2022/06/24 03:09:40;;;;;;;6.03;3.50;;;22.50;84.40;;;;;;5006774;28;20050;-72
2022/06/24 03:12:06;;;;;;;6.20;3.55;;;22.40;84.10;;;;;;5009368;28;20568;-72
2022/06/24 03:14:32;;;;;;;4.72;3.20;;;22.40;85.80;;;;;;5004746;28;20044;-73
2022/06/24 03:16:58;;;;;;;4.53;3.15;;;22.40;85.80;;;;;;5004645;28;20474;-73
2022/06/24 03:19:23;;;;;;;7.55;3.40;;;22.40;87.80;;;;;;5007407;28;20496;-72
2022/06/24 03:21:49;;;;;;;3.80;2.97;;;22.40;88.50;;;;;;5009032;28;20662;-72
2022/06/24 03:24:15;;;;;;;6.68;3.55;;;22.30;89.70;;;;;;5006654;28;20045;-73
2022/06/24 03:26:41;;;;;;;4.65;3.50;;;22.30;92.70;;;;;;5009421;28;20045;-73
2022/06/24 03:29:06;;;;;;;5.18;3.83;;;22.20;92.90;;;;;;5008030;28;20095;-73
2022/06/24 03:31:32;;;;;;;5.97;3.95;;;22.10;92.90;;;;;;5005115;28;20449;-72
2022/06/24 03:33:58;;;;;;;7.57;4.43;;;22.10;92.90;;;;;;5007495;28;20053;-72
2022/06/24 03:36:24;;;;;;;8.00;3.88;;;22.00;93.30;;;;;;5006134;28;20785;-72
2022/06/24 03:38:51;;;;;;;6.80;3.90;;;21.90;94.40;;;;;;5005678;28;20049;-73
2022/06/24 03:41:16;;;;;;;7.90;3.67;;;21.90;95.30;;;;;;5006151;28;20046;-73
2022/06/24 03:43:42;;;;;;;5.63;3.90;;;21.90;96.00;;;;;;5007600;28;20473;-73
2022/06/24 03:46:07;;;;;;;5.28;4.00;;;21.80;96.30;;;;;;5007829;28;20046;-72
2022/06/24 03:48:33;;;;;;;7.45;3.78;;;21.80;96.60;;;;;;5005235;28;20052;-72
2022/06/24 03:50:59;;;;;;;4.30;3.88;;;21.80;96.20;;;;;;4996280;28;20108;-73
2022/06/24 03:53:24;;;;;;;5.72;3.90;;;21.80;96.80;;;;;;5009153;28;20473;-72
2022/06/24 03:55:51;;;;;;;4.95;3.83;;;21.80;98.20;;;;;;5009360;28;20061;-73
2022/06/24 03:58:20;;;;;;;6.38;3.83;;;21.70;98.00;;;;;;5003716;28;20058;-73
2022/06/24 04:00:46;;;;;;;5.15;3.80;;;21.80;98.30;;;;;;5006126;28;20181;-72
2022/06/24 04:03:12;;;;;;;6.10;3.80;;;21.70;98.80;;;;;;5008770;28;20508;-72
2022/06/24 04:05:37;;;;;;;5.82;3.78;;;21.70;98.50;;;;;;5005855;28;20045;-73
2022/06/24 04:08:03;;;;;;;6.57;3.70;;;21.70;99.00;;;;;;5003269;28;20273;-72
2022/06/24 04:10:29;;;;;;;7.40;3.65;;;21.80;99.10;;;;;;5004567;28;20034;-72
2022/06/24 04:12:55;;;;;;;5.03;3.95;;;21.80;99.10;;;;;;5008248;28;20049;-72
2022/06/24 04:15:20;;;;;;;7.00;3.72;;;21.80;98.20;;;;;;5007495;28;20042;-72
2022/06/24 04:17:47;;;;;;;8.40;4.25;;;21.90;97.70;;;;;;5009154;28;20046;-73
2022/06/24 04:20:15;;;;;;;6.72;3.92;;;22.00;98.00;;;;;;5003071;28;20057;-72
2022/06/24 04:22:41;;;;;;;4.85;4.00;;;22.00;98.40;;;;;;5008012;28;20061;-73
2022/06/24 04:25:08;;;;;;;7.75;4.20;;;22.00;99.30;;;;;;5008223;28;20049;-72
2022/06/24 04:27:34;;;;;;;7.18;4.10;;;22.00;98.70;;;;;;5007123;28;20061;-73
2022/06/24 04:30:05;;;;;;;7.50;4.20;;;22.10;98.10;;;;;;5006472;28;20073;-73
2022/06/24 04:32:31;;;;;;;9.65;4.38;;;22.20;98.40;;;;;;5005766;28;20073;-73
2022/06/24 04:34:57;;;;;;;5.68;4.15;;;22.30;98.20;;;;;;4995855;28;20274;-72
2022/06/24 04:37:23;;;;;;;5.13;3.90;;;22.40;97.90;;;;;;4989377;28;20393;-73
2022/06/24 04:39:48;;;;;;;5.05;3.80;;;22.40;98.80;;;;;;4991399;28;20061;-72
2022/06/24 04:42:14;;;;;;;10.05;4.60;;;22.50;98.20;;;;;;5002092;28;20048;-73
2022/06/24 04:44:40;;;;;;;7.97;4.10;;;22.50;97.70;;;;;;5011408;28;20092;-72
2022/06/24 04:47:06;;;;;;;5.53;4.00;;;22.50;97.40;;;;;;5010173;28;20038;-72
2022/06/24 04:49:33;;;;;;;8.25;4.72;;;22.40;97.70;;;;;;5011312;28;20096;-73
2022/06/24 04:51:59;;;;;;;9.45;4.57;;;22.40;98.20;;;;;;5010176;28;20089;-72
2022/06/24 04:54:24;;;;;;;7.38;4.45;;;22.40;98.90;;;;;;5006298;28;20132;-72
2022/06/24 04:56:51;;;;;;;5.88;4.60;;;22.40;99.30;;;;;;5010159;28;20100;-72
2022/06/24 04:59:17;;;;;;;6.95;5.22;;;22.40;99.40;;;;;;5009171;28;20503;-72
2022/06/24 05:01:42;;;;;;;7.38;6.10;;;22.40;99.50;;;;;;5011273;28;20042;-73
2022/06/24 05:04:08;;;;;;;10.23;6.60;;;22.40;99.90;;;;;;5010022;28;20038;-72
2022/06/24 05:06:34;;;;;;;14.80;8.80;;;22.30;99.90;;;;;;5009338;28;20451;-72
2022/06/24 05:08:59;;;;;;;12.75;11.50;;;22.30;99.90;;;;;;5008460;28;20089;-73
2022/06/24 05:11:25;;;;;;;14.77;11.35;;;22.20;99.90;;;;;;5011506;28;20045;-72
2022/06/24 05:13:51;;;;;;;15.73;12.50;;;22.20;99.90;;;;;;5009995;28;20137;-72
2022/06/24 05:16:16;;;;;;;14.70;12.10;;;22.10;99.90;;;;;;5010283;28;20493;-72
2022/06/24 05:18:42;;;;;;;14.43;11.43;;;22.10;99.90;;;;;;5027296;28;20049;-72
2022/06/24 05:21:08;;;;;;;14.30;11.00;;;22.00;99.90;;;;;;5009788;28;20046;-73
2022/06/24 05:23:34;;;;;;;16.35;12.10;;;22.00;99.90;;;;;;5007606;28;20089;-72
2022/06/24 05:25:59;;;;;;;23.45;12.25;;;22.00;99.90;;;;;;5008911;28;20057;-72
2022/06/24 05:28:25;;;;;;;16.95;12.15;;;22.00;99.90;;;;;;5004483;28;20035;-71
2022/06/24 05:30:58;;;;;;;16.77;12.48;;;21.90;99.90;;;;;;5009277;28;20147;-72
2022/06/24 05:33:24;;;;;;;16.60;12.95;;;21.80;99.90;;;;;;5000315;28;20200;-72
2022/06/24 05:35:54;;;;;;;13.63;12.20;;;21.70;99.90;;;;;;5011238;28;20120;-72
2022/06/24 05:38:21;;;;;;;17.38;12.80;;;21.60;99.90;;;;;;5008888;28;20119;-72
2022/06/24 05:40:51;;;;;;;15.30;10.00;;;21.60;99.90;;;;;;5026748;28;20069;-72
2022/06/24 05:43:18;;;;;;;11.40;9.30;;;21.60;99.90;;;;;;5007167;28;20681;-73
2022/06/24 05:45:44;;;;;;;11.13;8.27;;;21.60;99.90;;;;;;5010832;28;20041;-73
2022/06/24 05:48:10;;;;;;;9.45;7.43;;;21.50;99.90;;;;;;5009543;28;20045;-73
2022/06/24 05:50:37;;;;;;;9.93;7.63;;;21.50;99.90;;;;;;5010096;28;20370;-72
2022/06/24 05:55:48;;;;;;;8.93;6.45;;;21.50;99.90;;;;;;5010680;28;20050;-72
2022/06/24 05:58:14;;;;;;;10.07;6.40;;;21.50;99.90;;;;;;5004124;28;20137;-72
2022/06/24 06:00:39;;;;;;;10.30;6.57;;;21.50;99.90;;;;;;5001497;28;20184;-72
2022/06/24 06:03:05;;;;;;;7.72;6.15;;;21.50;99.90;;;;;;5007072;28;20056;-72
2022/06/24 06:05:30;;;;;;;7.45;5.97;;;21.50;99.90;;;;;;5008711;28;20038;-71
2022/06/24 06:07:56;;;;;;;7.45;6.10;;;21.50;99.90;;;;;;5003054;28;20596;-72
2022/06/24 06:10:22;;;;;;;9.13;6.50;;;21.50;99.90;;;;;;5023229;28;20136;-72
2022/06/24 06:12:47;;;;;;;7.07;6.10;;;21.60;99.90;;;;;;5005304;28;20045;-73
2022/06/24 06:15:13;;;;;;;7.45;5.90;;;21.60;99.90;;;;;;5008473;28;20404;-72
2022/06/24 06:17:39;;;;;;;9.40;6.60;;;21.60;99.90;;;;;;5008106;28;20038;-73
2022/06/24 06:20:05;;;;;;;7.07;6.30;;;21.60;99.90;;;;;;5002493;28;20487;-73
2022/06/24 06:22:31;;;;;;;7.50;6.40;;;21.60;99.90;;;;;;5001401;28;20050;-72
2022/06/24 06:24:57;;;;;;;11.25;6.43;;;21.70;99.90;;;;;;5006912;28;20056;-73
2022/06/24 06:27:23;;;;;;;7.60;5.97;;;21.70;99.90;;;;;;5004833;28;20042;-72
2022/06/24 06:29:48;;;;;;;9.48;6.80;;;21.60;99.90;;;;;;5002291;28;20046;-72
2022/06/24 06:32:14;;;;;;;8.85;6.90;;;21.60;99.90;;;;;;5007284;28;20070;-72
2022/06/24 06:34:40;;;;;;;8.65;6.35;;;21.50;99.90;;;;;;5004130;28;20049;-72
2022/06/24 06:37:05;;;;;;;9.77;7.25;;;21.50;99.90;;;;;;5004690;28;20146;-72
2022/06/24 06:39:31;;;;;;;7.28;6.32;;;21.50;99.90;;;;;;5004142;28;20053;-71
2022/06/24 06:41:57;;;;;;;9.10;7.00;;;21.40;99.90;;;;;;5000111;28;20136;-72
2022/06/24 06:44:22;;;;;;;8.77;7.07;;;21.40;99.90;;;;;;5000205;28;20073;-72
2022/06/24 06:46:48;;;;;;;8.73;6.97;;;21.40;99.90;;;;;;5007263;28;20152;-71
2022/06/24 06:49:14;;;;;;;7.53;6.82;;;21.40;99.90;;;;;;5002871;28;20052;-72
2022/06/24 06:51:40;;;;;;;8.18;7.35;;;21.30;99.90;;;;;;4996876;28;20034;-72
2022/06/24 06:54:05;;;;;;;9.50;7.63;;;21.30;99.90;;;;;;5012018;28;20132;-72
2022/06/24 06:56:31;;;;;;;11.73;7.50;;;21.20;99.90;;;;;;5006588;28;20088;-72
2022/06/24 06:58:57;;;;;;;12.02;8.45;;;21.20;99.90;;;;;;5005004;28;20100;-72
2022/06/24 07:01:23;;;;;;;11.57;7.63;;;21.20;99.90;;;;;;5002289;28;20041;-72
2022/06/24 07:03:48;;;;;;;10.10;7.70;;;21.20;99.90;;;;;;4997800;28;20089;-72
2022/06/24 07:06:14;;;;;;;11.82;8.05;;;21.20;99.90;;;;;;5003990;28;20052;-72
2022/06/24 07:08:40;;;;;;;12.48;8.45;;;21.20;99.90;;;;;;5007735;28;20034;-72
2022/06/24 07:11:06;;;;;;;9.30;8.05;;;21.30;99.90;;;;;;5007092;28;20489;-72
2022/06/24 07:13:31;;;;;;;14.57;9.05;;;21.30;99.90;;;;;;5001501;28;20034;-72
2022/06/24 07:15:57;;;;;;;9.48;8.52;;;21.30;99.90;;;;;;5003770;28;20149;-70
2022/06/24 07:18:23;;;;;;;11.88;8.57;;;21.30;99.90;;;;;;5008081;28;20549;-72
2022/06/24 07:20:49;;;;;;;10.60;9.07;;;21.30;99.90;;;;;;5007281;28;20045;-71
2022/06/24 07:23:15;;;;;;;12.20;9.05;;;21.30;99.90;;;;;;5002083;28;20042;-72
2022/06/24 07:25:40;;;;;;;11.40;10.30;;;21.30;99.90;;;;;;5006996;28;20049;-72
2022/06/24 07:28:06;;;;;;;11.32;10.20;;;21.30;99.90;;;;;;5006369;28;20041;-71
2022/06/24 07:30:32;;;;;;;11.00;9.85;;;21.30;99.90;;;;;;5001189;28;20096;-71
2022/06/24 07:32:58;;;;;;;13.63;11.05;;;21.40;99.90;;;;;;5003794;28;20100;-71
2022/06/24 07:35:24;;;;;;;15.18;11.10;;;21.40;99.90;;;;;;5004333;28;20105;-73
2022/06/24 07:37:50;;;;;;;16.40;13.35;;;21.40;99.90;;;;;;5006038;28;20073;-73
2022/06/24 07:40:15;;;;;;;13.98;11.82;;;21.40;99.90;;;;;;5003626;28;20388;-71
2022/06/24 07:42:42;;;;;;;12.68;11.50;;;21.40;99.90;;;;;;5007293;28;20108;-70
2022/06/24 07:45:09;;;;;;;12.57;11.25;;;21.40;99.90;;;;;;5007371;28;20400;-71
2022/06/24 07:47:35;;;;;;;11.50;10.35;;;21.40;99.90;;;;;;5008333;28;20053;-72
2022/06/24 07:50:02;;;;;;;12.18;11.00;;;21.50;99.90;;;;;;5008229;28;20052;-73
2022/06/24 07:52:28;;;;;;;13.07;10.93;;;21.40;99.90;;;;;;5006995;28;20042;-72
2022/06/24 07:56:56;;;;;;;13.45;11.70;;;21.50;99.90;;;;;;5004879;28;20497;-72
2022/06/24 07:57:39;;;;;;;12.82;11.57;;;21.50;99.90;;;;;;5014778;28;20061;-72
2022/06/24 08:00:06;;;;;;;13.70;12.40;;;21.60;99.90;;;;;;5006166;28;20054;-73
2022/06/24 08:02:31;;;;;;;14.65;12.98;;;21.60;99.90;;;;;;5008447;28;20087;-73
2022/06/24 08:04:57;;;;;;;13.52;11.93;;;21.60;99.90;;;;;;5004780;28;20046;-72
2022/06/24 08:07:23;;;;;;;15.48;12.82;;;21.60;99.90;;;;;;5004569;28;20148;-72
2022/06/24 08:09:48;;;;;;;13.88;12.57;;;21.60;99.90;;;;;;5008863;28;20095;-72
2022/06/24 08:12:14;;;;;;;15.77;14.10;;;21.70;99.90;;;;;;5005149;28;20522;-72
2022/06/24 08:14:39;;;;;;;16.33;14.77;;;21.70;99.90;;;;;;5005911;28;20387;-72
2022/06/24 08:17:05;;;;;;;15.82;14.18;;;21.70;99.90;;;;;;5001336;28;20046;-73
2022/06/24 08:19:31;;;;;;;15.45;13.82;;;21.70;99.90;;;;;;5003354;28;20076;-73
2022/06/24 08:21:56;;;;;;;20.50;15.48;;;21.70;99.90;;;;;;5012797;28;20049;-73
2022/06/24 08:24:22;;;;;;;15.57;13.98;;;21.70;99.90;;;;;;5009482;28;20052;-72
2022/06/24 08:26:47;;;;;;;16.50;14.75;;;21.70;99.90;;;;;;5012230;28;20054;-73
2022/06/24 08:29:13;;;;;;;16.92;15.10;;;21.70;99.90;;;;;;5005851;28;20413;-73
2022/06/24 08:31:39;;;;;;;15.55;13.77;;;21.70;99.90;;;;;;5005617;28;20056;-73
2022/06/24 08:34:04;;;;;;;16.23;14.73;;;21.70;99.90;;;;;;5003218;28;20054;-71
2022/06/24 08:36:30;;;;;;;17.50;15.68;;;21.70;99.90;;;;;;5000249;28;20665;-73
2022/06/24 08:38:56;;;;;;;17.25;15.55;;;21.70;99.90;;;;;;5002990;28;20483;-74
2022/06/24 08:41:24;;;;;;;16.33;14.65;;;21.70;99.90;;;;;;5005691;28;20390;-74
2022/06/24 08:43:54;;;;;;;18.85;17.05;;;21.70;99.90;;;;;;5010446;28;20073;-72
2022/06/24 08:46:21;;;;;;;17.73;16.02;;;21.70;99.90;;;;;;5008165;28;20124;-73
2022/06/24 08:48:48;;;;;;;18.75;17.02;;;21.70;99.90;;;;;;5007139;28;20050;-73
2022/06/24 08:51:13;;;;;;;;;;;21.70;99.90;;;;;;5010951;28;20111;-71
2022/06/24 08:53:39;;;;;;;17.70;16.10;;;21.70;99.90;;;;;;5011515;28;19925;-73
2022/06/24 08:56:07;;;;;;;19.30;17.35;;;21.80;99.90;;;;;;5009066;28;20104;-72
2022/06/24 08:58:34;;;;;;;18.85;16.85;;;21.90;99.90;;;;;;5011021;28;20049;-72
2022/06/24 09:01:00;;;;;;;19.63;17.63;;;21.90;99.90;;;;;;5010036;28;20085;-73
2022/06/24 09:03:25;;;;;;;18.92;17.23;;;22.00;99.90;;;;;;5011750;28;20543;-71
2022/06/24 09:05:51;;;;;;;19.02;17.42;;;22.10;99.90;;;;;;5011605;28;20432;-73
2022/06/24 09:08:17;;;;;;;18.40;16.90;;;22.20;99.90;;;;;;5007455;28;20460;-74
2022/06/24 09:11:06;;;;;;;17.13;15.68;;;22.30;99.90;;;;;;5012017;28;20038;-72
2022/06/24 09:14:00;;;;;;;19.15;17.25;;;22.30;99.90;;;;;;5008831;28;20042;-73
2022/06/24 09:16:26;;;;;;;18.65;16.92;;;22.40;99.90;;;;;;5004905;28;20188;-73
2022/06/24 09:19:03;;;;;;;18.65;16.90;;;22.40;99.90;;;;;;5004395;28;20124;-72
2022/06/24 09:21:32;;;;;;;20.13;18.20;;;22.40;99.90;;;;;;5002027;28;20046;-72
2022/06/24 09:24:05;;;;;;;20.38;18.48;;;22.30;99.90;;;;;;5003831;28;20045;-73
2022/06/24 09:26:35;;;;;;;19.38;17.67;;;22.30;99.90;;;;;;4991613;28;20133;-71
2022/06/24 09:29:03;;;;;;;20.92;18.90;;;22.20;99.90;;;;;;5009577;28;20677;-72
2022/06/24 09:31:29;;;;;;;22.00;19.77;;;22.20;99.90;;;;;;5008657;28;20038;-71
2022/06/24 09:33:55;;;;;;;22.13;20.05;;;22.20;99.90;;;;;;5010023;28;20048;-74
2022/06/24 09:36:26;;;;;;;21.00;19.02;;;22.20;99.90;;;;;;5005111;28;20037;-72
2022/06/24 09:39:02;;;;;;;21.42;19.38;;;22.30;99.90;;;;;;5008646;28;20053;-71
2022/06/24 09:41:28;;;;;;;19.42;17.63;;;22.40;99.90;;;;;;4999712;28;20185;-71
2022/06/24 09:43:56;;;;;;;18.70;17.10;;;22.50;99.90;;;;;;5006752;28;20136;-70
2022/06/24 09:46:23;;;;;;;20.30;18.30;;;22.60;99.90;;;;;;5010268;28;20037;-71
2022/06/24 09:48:57;;;;;;;18.92;17.25;;;22.70;99.90;;;;;;5010867;28;20082;-72
2022/06/24 09:51:22;;;;;;;18.63;17.02;;;22.70;99.90;;;;;;5010560;28;20084;-72
2022/06/24 09:53:51;;;;;;;17.73;16.02;;;22.60;99.90;;;;;;5010294;28;20096;-72
2022/06/24 09:56:17;;;;;;;20.70;18.50;;;22.60;99.90;;;;;;5008241;28;20041;-69
2022/06/24 10:00:40;;;;;;;24.00;17.60;;;22.40;99.90;;;;;;5010079;28;20050;-69
2022/06/24 10:01:34;;;;;;;21.55;18.23;;;22.40;99.90;;;;;;5008508;28;20050;-69
2022/06/24 10:04:02;;;;;;;15.57;13.05;;;22.20;99.90;;;;;;5005556;28;20045;-69
2022/06/24 10:06:31;;;;;;;10.07;4.88;;;22.10;99.90;;;;;;5007093;28;20056;-70
2022/06/24 10:08:59;;;;;;;8.82;3.10;;;21.80;99.90;;;;;;5006257;28;20542;-71
2022/06/24 10:11:26;;;;;;;8.13;2.92;;;21.60;99.90;;;;;;5003390;28;20492;-71
2022/06/24 10:13:52;;;;;;;5.75;2.92;;;21.40;99.90;;;;;;5019674;28;20084;-71
2022/06/24 10:16:20;;;;;;;5.35;3.00;;;21.20;99.90;;;;;;5008867;28;20107;-70
2022/06/24 10:18:49;;;;;;;5.88;2.20;;;21.00;99.90;;;;;;5005128;28;20448;-71
2022/06/24 10:21:16;;;;;;;7.43;2.30;;;20.90;99.90;;;;;;5006827;28;20064;-73
2022/06/24 10:23:43;;;;;;;4.53;2.17;;;20.80;99.90;;;;;;5009232;28;20512;-71
2022/06/24 10:26:17;;;;;;;4.03;2.40;;;20.70;99.90;;;;;;5007742;28;20188;-73
2022/06/24 10:29:03;;;;;;;3.05;2.28;;;20.60;99.90;;;;;;5007598;28;20045;-71
2022/06/24 10:34:26;;;;;;;3.42;2.30;;;20.50;99.90;;;;;;5009545;28;20088;-74
2022/06/24 10:36:57;;;;;;;4.38;2.60;;;20.50;99.90;;;;;;5006675;28;20417;-73
2022/06/24 10:39:24;;;;;;;3.90;2.47;;;20.50;99.90;;;;;;4983514;28;20046;-73
2022/06/24 10:42:24;;;;;;;4.53;2.63;;;20.50;99.90;;;;;;4986456;28;20042;-72
2022/06/24 10:44:58;;;;;;;4.88;3.00;;;20.40;99.90;;;;;;4987239;28;20050;-72
2022/06/24 10:47:39;;;;;;;4.53;2.65;;;20.40;99.90;;;;;;4984748;28;20135;-72
2022/06/24 10:50:14;;;;;;;4.43;2.80;;;20.40;99.90;;;;;;4987486;28;20050;-72
2022/06/24 10:52:47;;;;;;;5.63;3.10;;;20.40;99.90;;;;;;4991217;28;20046;-72
2022/06/24 10:55:24;;;;;;;4.10;2.60;;;20.40;99.90;;;;;;4987170;28;20490;-74
2022/06/24 10:57:54;;;;;;;4.25;3.22;;;20.40;99.90;;;;;;4989608;28;20518;-73
2022/06/24 11:00:54;;;;;;;4.97;2.78;;;20.30;99.90;;;;;;4990481;28;20124;-71
2022/06/24 11:03:27;;;;;;;4.68;2.80;;;20.30;99.90;;;;;;5005780;28;20442;-73
2022/06/24 11:05:53;;;;;;;5.65;3.63;;;20.30;99.90;;;;;;5006880;28;20042;-71
2022/06/24 11:08:21;;;;;;;5.55;3.60;;;20.30;99.90;;;;;;5003518;28;20038;-71
2022/06/24 11:10:49;;;;;;;4.07;3.00;;;20.40;99.90;;;;;;5009331;28;20077;-72
2022/06/24 11:13:16;;;;;;;5.47;3.25;;;20.40;99.90;;;;;;5007397;28;20132;-70
2022/06/24 11:15:50;;;;;;;4.45;3.35;;;20.40;99.90;;;;;;5006924;28;20080;-72
2022/06/24 11:18:22;;;;;;;4.63;3.70;;;20.40;99.90;;;;;;5008252;28;20062;-72
2022/06/24 11:20:49;;;;;;;5.57;2.90;;;20.40;99.90;;;;;;5005848;28;20121;-71
2022/06/24 11:23:16;;;;;;;;;;;20.40;99.90;;;;;;5008040;28;20069;-72
2022/06/24 11:25:57;;;;;;;5.60;3.35;;;20.40;99.90;;;;;;5004323;28;19918;-72
2022/06/24 11:28:24;;;;;;;5.93;3.60;;;20.60;99.90;;;;;;5006067;28;20056;-72
2022/06/24 11:30:52;;;;;;;4.40;3.38;;;20.80;99.90;;;;;;5006713;28;20089;-72
2022/06/24 11:33:19;;;;;;;4.88;3.58;;;21.10;99.90;;;;;;5006903;28;20554;-72
2022/06/24 11:35:49;;;;;;;7.07;3.63;;;21.40;99.90;;;;;;5007435;28;20673;-72
2022/06/24 11:38:16;;;;;;;6.10;3.40;;;21.50;99.90;;;;;;5000936;28;20053;-73
2022/06/24 11:40:42;;;;;;;4.65;3.30;;;21.70;99.90;;;;;;5004103;28;20065;-72
2022/06/24 11:43:13;;;;;;;5.25;3.47;;;21.70;99.90;;;;;;5005690;28;20131;-73
2022/06/24 11:45:44;;;;;;;6.03;3.58;;;21.70;99.90;;;;;;5022688;28;20038;-73
2022/06/24 11:48:12;;;;;;;4.32;3.55;;;21.60;99.90;;;;;;5008115;28;20053;-72
2022/06/24 11:50:39;;;;;;;5.32;4.03;;;21.60;99.90;;;;;;5004992;28;20046;-73
2022/06/24 11:53:07;;;;;;;6.18;4.68;;;21.60;99.90;;;;;;5011183;28;20132;-71
2022/06/24 11:55:40;;;;;;;6.15;4.70;;;21.60;99.90;;;;;;5021276;28;20128;-75
2022/06/24 11:58:07;;;;;;;5.25;4.68;;;21.70;99.90;;;;;;5001644;28;20125;-71
2022/06/24 12:00:38;;;;;;;5.80;5.20;;;21.70;99.90;;;;;;5010290;28;20087;-73
2022/06/24 12:03:07;;;;;;;6.95;5.68;;;21.70;99.90;;;;;;5006868;28;20133;-73
2022/06/24 12:05:36;;;;;;;6.28;5.68;;;21.70;99.90;;;;;;5011719;28;20400;-73
2022/06/24 12:08:02;;;;;;;6.60;5.90;;;21.80;99.90;;;;;;5009798;28;20054;-72
2022/06/24 12:10:28;;;;;;;9.17;6.20;;;21.80;99.90;;;;;;5007218;28;20469;-71
2022/06/24 12:12:57;;;;;;;7.13;6.10;;;21.80;99.90;;;;;;5009598;28;20049;-72
2022/06/24 12:15:25;;;;;;;6.53;5.93;;;21.90;99.90;;;;;;5008777;28;20053;-72
2022/06/24 12:17:54;;;;;;;8.00;6.13;;;22.00;99.90;;;;;;5011011;28;20038;-72
2022/06/24 12:20:28;;;;;;;9.30;6.45;;;22.10;99.90;;;;;;5008346;28;20523;-71
2022/06/24 12:23:19;;;;;;;6.95;6.25;;;22.10;99.90;;;;;;5025207;28;20769;-72
2022/06/24 12:25:47;;;;;;;6.65;5.97;;;22.20;99.90;;;;;;5017097;28;20081;-70
2022/06/24 12:28:16;;;;;;;7.03;5.60;;;22.20;99.90;;;;;;5010721;28;20057;-71
2022/06/24 12:30:43;;;;;;;7.60;6.80;;;22.20;99.90;;;;;;5008771;28;20038;-71
2022/06/24 12:33:14;;;;;;;10.40;5.70;;;22.30;99.90;;;;;;5008210;28;20486;-73
2022/06/24 12:35:43;;;;;;;6.90;4.82;;;22.30;99.90;;;;;;5005015;28;20069;-71
2022/06/24 12:38:13;;;;;;;10.38;5.07;;;22.40;99.90;;;;;;5005844;28;20046;-72
2022/06/24 12:40:42;;;;;;;6.32;5.15;;;22.50;99.90;;;;;;5010161;28;20440;-70
2022/06/24 12:43:12;;;;;;;6.88;5.50;;;22.70;99.90;;;;;;5008022;28;20049;-71
2022/06/24 12:45:40;;;;;;;9.68;5.75;;;22.80;99.90;;;;;;5006314;28;20049;-72
2022/06/24 12:51:03;;;;;;;9.90;6.60;;;22.90;99.90;;;;;;5012035;28;20054;-72
2022/06/24 12:53:30;;;;;;;6.18;5.57;;;22.90;99.90;;;;;;5006279;28;20045;-72
2022/06/24 12:55:56;;;;;;;6.55;5.95;;;22.90;99.90;;;;;;5010384;28;20140;-70
2022/06/24 12:58:22;;;;;;;8.13;6.70;;;22.80;99.90;;;;;;5008179;28;20057;-72
2022/06/24 13:00:48;;;;;;;7.60;6.10;;;22.80;99.90;;;;;;5007477;28;20546;-72